sensor_id;sensor_type;location;lat;lon;timestamp;pressure;altitude;pressure_sealevel;temperature;humidity
57904;BME280;43720;47.462;19.030;2023-08-31T06:58:43;99887.81;;;18.51;90.62
57904;BME280;43720;47.462;19.030;2023-08-31T07:01:46;99902.03;;;18.46;90.10
57904;BME280;43720;47.462;19.030;2023-08-31T07:04:48;99909.78;;;18.53;89.97
57904;BME280;43720;47.462;19.030;2023-08-31T07:07:54;99907.81;;;18.62;88.56
57904;BME280;43720;47.462;19.030;2023-08-31T07:10:56;99909.53;;;18.64;87.67
57904;BME280;43720;47.462;19.030;2023-08-31T07:14:28;99919.06;;;18.70;89.25
57904;BME280;43720;47.462;19.030;2023-08-31T07:17:30;99921.97;;;18.61;88.47
57904;BME280;43720;47.462;19.030;2023-08-31T07:20:33;99921.72;;;18.70;91.54
57904;BME280;43720;47.462;19.030;2023-08-31T07:23:36;99936.81;;;18.66;90.29
57904;BME280;43720;47.462;19.030;2023-08-31T07:26:38;99924.47;;;18.67;88.65
57904;BME280;43720;47.462;19.030;2023-08-31T07:29:40;99924.31;;;18.74;88.37
57904;BME280;43720;47.462;19.030;2023-08-31T07:32:43;99928.72;;;18.74;91.68
57904;BME280;43720;47.462;19.030;2023-08-31T07:35:45;99925.78;;;18.85;88.16
57904;BME280;43720;47.462;19.030;2023-08-31T07:38:48;99928.47;;;18.83;88.98
57904;BME280;43720;47.462;19.030;2023-08-31T07:41:50;99940.66;;;18.90;88.82
57904;BME280;43720;47.462;19.030;2023-08-31T07:44:54;99939.41;;;19.03;88.24
57904;BME280;43720;47.462;19.030;2023-08-31T07:47:56;99945.34;;;19.12;89.73
57904;BME280;43720;47.462;19.030;2023-08-31T07:50:59;99947.81;;;19.19;90.44
57904;BME280;43720;47.462;19.030;2023-08-31T07:54:01;99944.12;;;19.25;91.07
57904;BME280;43720;47.462;19.030;2023-08-31T07:57:05;99947.34;;;19.36;85.75
57904;BME280;43720;47.462;19.030;2023-08-31T08:00:08;99947.16;;;19.42;88.58
57904;BME280;43720;47.462;19.030;2023-08-31T08:03:13;99944.25;;;19.51;87.33
57904;BME280;43720;47.462;19.030;2023-08-31T08:06:16;99946.63;;;19.61;84.88
57904;BME280;43720;47.462;19.030;2023-08-31T08:09:19;99943.81;;;19.67;84.60
57904;BME280;43720;47.462;19.030;2023-08-31T08:12:21;99951.75;;;19.67;83.03
57904;BME280;43720;47.462;19.030;2023-08-31T08:15:24;99946.63;;;19.61;80.81
57904;BME280;43720;47.462;19.030;2023-08-31T08:18:26;99958.53;;;19.77;83.33
57904;BME280;43720;47.462;19.030;2023-08-31T08:21:29;99952.06;;;19.87;84.39
57904;BME280;43720;47.462;19.030;2023-08-31T08:24:31;99946.84;;;19.84;77.60
57904;BME280;43720;47.462;19.030;2023-08-31T08:27:34;99949.06;;;19.98;78.14
57904;BME280;43720;47.462;19.030;2023-08-31T08:30:39;99959.69;;;20.26;79.26
57904;BME280;43720;47.462;19.030;2023-08-31T08:33:41;99963.97;;;20.30;78.67
57904;BME280;43720;47.462;19.030;2023-08-31T08:36:44;99967.19;;;20.40;78.27
57904;BME280;43720;47.462;19.030;2023-08-31T08:39:49;99960.81;;;20.45;78.33
57904;BME280;43720;47.462;19.030;2023-08-31T08:43:42;99961.63;;;20.47;72.63
57904;BME280;43720;47.462;19.030;2023-08-31T08:46:46;99969.91;;;20.38;72.42
57904;BME280;43720;47.462;19.030;2023-08-31T08:49:49;99970.75;;;20.67;75.19
57904;BME280;43720;47.462;19.030;2023-08-31T08:52:52;99978.09;;;20.85;76.98
57904;BME280;43720;47.462;19.030;2023-08-31T08:55:54;99973.50;;;20.90;71.14
57904;BME280;43720;47.462;19.030;2023-08-31T08:58:57;99987.28;;;21.01;73.20
57904;BME280;43720;47.462;19.030;2023-08-31T09:01:59;99989.78;;;21.31;74.26
57904;BME280;43720;47.462;19.030;2023-08-31T09:05:02;99988.94;;;21.31;67.99
57904;BME280;43720;47.462;19.030;2023-08-31T09:08:08;99987.97;;;21.33;67.66
57904;BME280;43720;47.462;19.030;2023-08-31T09:11:20;99995.28;;;21.52;67.50
57904;BME280;43720;47.462;19.030;2023-08-31T09:14:24;99998.31;;;21.41;65.56
57904;BME280;43720;47.462;19.030;2023-08-31T09:17:37;99995.88;;;21.60;66.00
57904;BME280;43720;47.462;19.030;2023-08-31T09:20:46;100004.78;;;21.59;65.63
57904;BME280;43720;47.462;19.030;2023-08-31T09:23:56;100004.94;;;22.01;68.55
57904;BME280;43720;47.462;19.030;2023-08-31T09:26:59;100001.59;;;22.41;68.34
57904;BME280;43720;47.462;19.030;2023-08-31T09:30:02;100001.12;;;22.54;63.65
57904;BME280;43720;47.462;19.030;2023-08-31T09:33:06;100013.81;;;22.02;62.92
57904;BME280;43720;47.462;19.030;2023-08-31T09:36:09;100006.41;;;21.86;62.60
57904;BME280;43720;47.462;19.030;2023-08-31T09:39:14;100007.78;;;21.49;62.41
57904;BME280;43720;47.462;19.030;2023-08-31T09:42:16;100017.00;;;21.39;62.71
57904;BME280;43720;47.462;19.030;2023-08-31T09:45:25;100012.63;;;21.38;63.75
57904;BME280;43720;47.462;19.030;2023-08-31T09:48:47;100016.37;;;21.81;64.79
57904;BME280;43720;47.462;19.030;2023-08-31T09:51:51;100012.56;;;21.88;61.01
57904;BME280;43720;47.462;19.030;2023-08-31T09:54:54;100008.91;;;22.14;58.97
57904;BME280;43720;47.462;19.030;2023-08-31T09:57:58;100016.50;;;22.47;57.91
57904;BME280;43720;47.462;19.030;2023-08-31T10:01:17;100025.47;;;22.44;58.00
57904;BME280;43720;47.462;19.030;2023-08-31T10:04:31;100017.00;;;22.35;58.20
57904;BME280;43720;47.462;19.030;2023-08-31T10:07:35;100024.03;;;22.36;58.72
57904;BME280;43720;47.462;19.030;2023-08-31T10:10:39;100026.50;;;22.40;58.43
57904;BME280;43720;47.462;19.030;2023-08-31T10:13:42;100023.53;;;22.48;57.40
57904;BME280;43720;47.462;19.030;2023-08-31T10:16:45;100026.69;;;22.36;55.93
57904;BME280;43720;47.462;19.030;2023-08-31T10:19:48;100033.75;;;22.37;59.44
57904;BME280;43720;47.462;19.030;2023-08-31T10:22:51;100038.28;;;22.57;58.26
57904;BME280;43720;47.462;19.030;2023-08-31T10:28:58;100042.16;;;22.03;58.77
57904;BME280;43720;47.462;19.030;2023-08-31T10:32:02;100050.81;;;21.61;61.04
57904;BME280;43720;47.462;19.030;2023-08-31T10:35:05;100048.38;;;21.55;64.44
57904;BME280;43720;47.462;19.030;2023-08-31T10:38:14;100049.81;;;21.63;66.30
57904;BME280;43720;47.462;19.030;2023-08-31T10:41:19;100054.56;;;21.80;70.05
57904;BME280;43720;47.462;19.030;2023-08-31T10:44:26;100056.00;;;21.89;65.48
57904;BME280;43720;47.462;19.030;2023-08-31T10:47:40;100061.44;;;21.86;65.02
57904;BME280;43720;47.462;19.030;2023-08-31T10:50:46;100063.09;;;21.65;63.25
57904;BME280;43720;47.462;19.030;2023-08-31T10:53:50;100065.41;;;21.74;64.35
57904;BME280;43720;47.462;19.030;2023-08-31T10:59:59;100067.37;;;21.69;64.76
57904;BME280;43720;47.462;19.030;2023-08-31T11:03:02;100065.59;;;21.93;63.14
57904;BME280;43720;47.462;19.030;2023-08-31T11:06:10;100071.09;;;22.12;63.50
57904;BME280;43720;47.462;19.030;2023-08-31T11:09:20;100075.59;;;22.10;61.29
57904;BME280;43720;47.462;19.030;2023-08-31T11:12:22;100072.06;;;22.09;62.14
57904;BME280;43720;47.462;19.030;2023-08-31T11:15:26;100082.81;;;21.83;60.18
57904;BME280;43720;47.462;19.030;2023-08-31T11:18:29;100083.88;;;21.79;61.44
57904;BME280;43720;47.462;19.030;2023-08-31T11:21:32;100076.81;;;22.01;64.02
57904;BME280;43720;47.462;19.030;2023-08-31T11:24:34;100087.41;;;22.03;62.95
57904;BME280;43720;47.462;19.030;2023-08-31T11:27:36;100082.09;;;22.26;62.50
57904;BME280;43720;47.462;19.030;2023-08-31T11:30:40;100083.50;;;22.36;60.19
57904;BME280;43720;47.462;19.030;2023-08-31T11:33:47;100086.56;;;22.71;59.92
57904;BME280;43720;47.462;19.030;2023-08-31T11:36:49;100084.09;;;22.88;60.58
57904;BME280;43720;47.462;19.030;2023-08-31T11:39:53;100073.97;;;23.18;61.04
57904;BME280;43720;47.462;19.030;2023-08-31T11:42:57;100072.44;;;23.33;57.95
57904;BME280;43720;47.462;19.030;2023-08-31T11:46:00;100069.97;;;23.49;61.23
57904;BME280;43720;47.462;19.030;2023-08-31T11:49:04;100068.72;;;23.58;61.94
57904;BME280;43720;47.462;19.030;2023-08-31T11:52:08;100076.53;;;23.42;59.01
57904;BME280;43720;47.462;19.030;2023-08-31T11:55:12;100079.66;;;23.31;60.22
57904;BME280;43720;47.462;19.030;2023-08-31T11:58:15;100083.44;;;23.46;61.27
57904;BME280;43720;47.462;19.030;2023-08-31T12:01:20;100080.59;;;23.51;57.64
57904;BME280;43720;47.462;19.030;2023-08-31T12:04:23;100081.94;;;23.40;56.67
57904;BME280;43720;47.462;19.030;2023-08-31T12:07:26;100090.47;;;23.28;55.53
57904;BME280;43720;47.462;19.030;2023-08-31T12:10:28;100085.94;;;22.86;56.43
57904;BME280;43720;47.462;19.030;2023-08-31T12:13:30;100082.72;;;22.78;56.92
57904;BME280;43720;47.462;19.030;2023-08-31T12:16:34;100077.22;;;23.05;58.22
57904;BME280;43720;47.462;19.030;2023-08-31T12:19:40;100074.50;;;23.06;60.03
57904;BME280;43720;47.462;19.030;2023-08-31T12:22:42;100073.41;;;23.32;58.56
57904;BME280;43720;47.462;19.030;2023-08-31T12:25:50;100078.53;;;23.37;56.88
57904;BME280;43720;47.462;19.030;2023-08-31T12:28:53;100087.59;;;23.33;57.25
57904;BME280;43720;47.462;19.030;2023-08-31T12:31:55;100077.72;;;23.55;56.60
57904;BME280;43720;47.462;19.030;2023-08-31T12:34:58;100067.94;;;23.35;52.96
57904;BME280;43720;47.462;19.030;2023-08-31T12:38:00;100061.00;;;23.52;54.04
57904;BME280;43720;47.462;19.030;2023-08-31T12:41:03;100070.31;;;23.41;51.20
57904;BME280;43720;47.462;19.030;2023-08-31T12:44:08;100067.41;;;23.48;51.63
57904;BME280;43720;47.462;19.030;2023-08-31T12:47:11;100075.31;;;23.49;52.02
57904;BME280;43720;47.462;19.030;2023-08-31T12:50:13;100087.94;;;23.46;53.78
57904;BME280;43720;47.462;19.030;2023-08-31T12:53:16;100077.53;;;23.39;53.43
57904;BME280;43720;47.462;19.030;2023-08-31T12:56:18;100078.84;;;23.09;53.95
57904;BME280;43720;47.462;19.030;2023-08-31T12:59:24;100072.41;;;23.35;54.42
57904;BME280;43720;47.462;19.030;2023-08-31T13:02:26;100075.28;;;23.51;54.83
57904;BME280;43720;47.462;19.030;2023-08-31T13:05:29;100073.69;;;23.67;54.12
57904;BME280;43720;47.462;19.030;2023-08-31T13:08:31;100081.28;;;23.76;58.39
57904;BME280;43720;47.462;19.030;2023-08-31T13:11:33;100065.25;;;23.76;53.98
57904;BME280;43720;47.462;19.030;2023-08-31T13:14:35;100068.06;;;23.73;52.49
57904;BME280;43720;47.462;19.030;2023-08-31T13:17:38;100053.28;;;23.64;49.87
57904;BME280;43720;47.462;19.030;2023-08-31T13:20:40;100063.38;;;23.58;52.63
57904;BME280;43720;47.462;19.030;2023-08-31T13:23:43;100063.44;;;23.56;51.51
57904;BME280;43720;47.462;19.030;2023-08-31T13:26:46;100065.13;;;23.59;50.42
57904;BME280;43720;47.462;19.030;2023-08-31T13:29:50;100061.50;;;23.80;48.66
57904;BME280;43720;47.462;19.030;2023-08-31T13:32:53;100060.03;;;23.94;51.77
57904;BME280;43720;47.462;19.030;2023-08-31T13:35:59;100060.16;;;23.90;48.97
